Time;durP1;ratioP1;P1;durP2;ratioP2;P2;SDS_P1;SDS_P2;PMS_P1;PMS_P2;Temp;Humidity;BMP_temperature;BMP_pressure;BME280_temperature;BME280_humidity;BME280_pressure;Samples;Min_cycle;Max_cycle;Signal;HPM_P1;HPM_P2
2021/12/25 00:01:50;;;;;;;6.75;3.63;;;0.40;99.90;;;;;;4978840;28;20058;-76
2021/12/25 00:04:16;;;;;;;5.82;2.90;;;0.40;99.90;;;;;;4963369;28;20181;-76
2021/12/25 00:06:42;;;;;;;6.38;2.97;;;;;;;;;;4961783;28;20422;-76
2021/12/25 00:09:08;;;;;;;4.07;2.78;;;;;;;;;;4965808;28;20043;-76
2021/12/25 00:11:34;;;;;;;5.68;2.70;;;;;;;;;;4969165;28;20041;-76
2021/12/25 00:14:00;;;;;;;3.80;2.20;;;;;;;;;;4970991;28;20479;-76
2021/12/25 00:16:26;;;;;;;5.53;2.40;;;;;;;;;;4969181;28;20054;-77
2021/12/25 00:18:52;;;;;;;7.35;2.55;;;;;;;;;;4962828;28;20513;-76
2021/12/25 00:21:18;;;;;;;4.78;2.33;;;0.30;99.90;;;;;;4962378;28;20046;-76
2021/12/25 00:23:43;;;;;;;4.95;2.25;;;0.20;99.90;;;;;;4959992;28;20042;-76
2021/12/25 00:26:25;;;;;;;3.15;1.90;;;0.10;99.90;;;;;;4962297;28;20051;-76
2021/12/25 00:29:04;;;;;;;7.18;2.10;;;0.10;99.90;;;;;;4962245;28;20524;-76
2021/12/25 00:34:16;;;;;;;4.40;1.80;;;0.10;99.90;;;;;;4963493;28;20106;-76
2021/12/25 00:36:41;;;;;;;2.90;1.98;;;0.00;99.90;;;;;;4963250;28;20054;-76
2021/12/25 00:39:07;;;;;;;4.32;1.90;;;-0.10;99.90;;;;;;4978241;28;20051;-76
2021/12/25 00:41:33;;;;;;;3.58;2.00;;;-0.10;99.90;;;;;;4963631;28;20077;-76
2021/12/25 00:43:59;;;;;;;6.63;2.10;;;-0.10;99.90;;;;;;4965541;28;20078;-76
2021/12/25 00:46:24;;;;;;;4.53;1.83;;;-0.10;99.90;;;;;;4963789;28;20061;-76
2021/12/25 00:48:50;;;;;;;3.78;1.80;;;-0.10;99.90;;;;;;4979363;28;20043;-76
2021/12/25 00:51:15;;;;;;;5.55;2.03;;;-0.20;99.90;;;;;;4980652;28;20047;-76
2021/12/25 00:53:42;;;;;;;3.55;1.80;;;-0.20;99.90;;;;;;4962422;28;20173;-76
2021/12/25 00:56:08;;;;;;;2.92;1.67;;;-0.20;99.90;;;;;;4965310;28;20042;-76
2021/12/25 00:58:34;;;;;;;7.13;1.92;;;-0.20;99.90;;;;;;4965482;28;20073;-76
2021/12/25 01:01:00;;;;;;;3.58;2.15;;;-0.20;99.90;;;;;;4966117;28;20482;-75
2021/12/25 01:03:25;;;;;;;3.30;2.00;;;-0.20;99.90;;;;;;4968146;28;20161;-75
2021/12/25 01:05:51;;;;;;;2.88;1.80;;;-0.20;99.90;;;;;;4961530;28;20101;-75
2021/12/25 01:08:16;;;;;;;7.15;2.75;;;-0.20;99.90;;;;;;4963827;28;20047;-75
2021/12/25 01:10:42;;;;;;;3.58;1.80;;;-0.20;99.90;;;;;;4965285;28;20035;-75
2021/12/25 01:13:10;;;;;;;3.83;1.80;;;-0.20;99.90;;;;;;4962201;28;20565;-75
2021/12/25 01:31:10;;;;;;;4.75;1.88;;;-0.50;99.90;;;;;;4962950;28;20051;-75
2021/12/25 01:34:16;;;;;;;2.13;1.70;;;-0.50;99.90;;;;;;4962125;28;20043;-75
2021/12/25 01:36:49;;;;;;;4.18;1.60;;;-0.50;99.90;;;;;;4962855;28;20130;-75
2021/12/25 01:49:38;;;;;;;2.42;1.63;;;-0.60;99.90;;;;;;4965080;28;20047;-75
2021/12/25 01:52:05;;;;;;;4.75;2.05;;;-0.70;99.90;;;;;;4966766;28;20038;-75
2021/12/25 01:54:30;;;;;;;3.20;1.80;;;-0.70;99.90;;;;;;4966041;28;20046;-75
2021/12/25 01:56:56;;;;;;;2.40;1.65;;;-0.70;99.90;;;;;;4965803;28;20058;-75
2021/12/25 01:59:22;;;;;;;4.88;1.90;;;-0.80;99.90;;;;;;4969753;28;20051;-75
2021/12/25 02:01:48;;;;;;;1.85;1.70;;;-0.70;99.90;;;;;;4968677;28;20058;-75
2021/12/25 02:04:14;;;;;;;6.20;1.95;;;-0.80;99.90;;;;;;4967649;28;20122;-75
2021/12/25 02:06:40;;;;;;;2.60;1.80;;;-0.90;99.90;;;;;;4967639;28;20194;-75
2021/12/25 02:09:06;;;;;;;5.55;1.80;;;-0.90;99.90;;;;;;4966406;28;20066;-75
2021/12/25 02:11:32;;;;;;;4.03;1.80;;;-0.90;99.90;;;;;;4964185;28;20593;-75
2021/12/25 02:13:58;;;;;;;2.35;1.52;;;-1.00;99.90;;;;;;4967438;28;20046;-75
2021/12/25 02:16:29;;;;;;;3.97;1.83;;;-1.00;99.90;;;;;;4970884;28;20043;-75
2021/12/25 02:19:07;;;;;;;6.90;2.17;;;-1.00;99.90;;;;;;4966352;28;20043;-75
2021/12/25 02:21:40;;;;;;;1.90;1.67;;;-1.00;99.90;;;;;;4968187;28;20118;-75
2021/12/25 02:24:08;;;;;;;3.63;1.70;;;-1.00;99.90;;;;;;4965722;28;20046;-75
2021/12/25 02:26:36;;;;;;;3.22;1.77;;;-1.10;99.90;;;;;;4985696;28;20070;-75
2021/12/25 02:29:02;;;;;;;4.13;1.90;;;-1.10;99.90;;;;;;4964418;28;20055;-75
2021/12/25 02:31:28;;;;;;;3.92;1.83;;;-1.00;99.90;;;;;;4963679;28;20050;-75
2021/12/25 02:33:54;;;;;;;3.22;2.10;;;-1.10;99.90;;;;;;4966145;28;20057;-75
2021/12/25 02:36:20;;;;;;;4.57;1.95;;;-1.10;99.90;;;;;;4980796;28;20046;-75
2021/12/25 02:38:46;;;;;;;2.22;1.83;;;-1.20;99.90;;;;;;4964013;28;20133;-75
2021/12/25 02:41:12;;;;;;;3.20;1.70;;;-1.20;99.90;;;;;;4964009;28;20093;-75
2021/12/25 02:43:39;;;;;;;3.55;2.10;;;-1.20;99.90;;;;;;4966023;28;20042;-75
2021/12/25 02:46:05;;;;;;;3.47;1.80;;;-1.30;99.90;;;;;;4962614;28;20061;-75
2021/12/25 02:48:34;;;;;;;6.25;1.98;;;-1.30;99.90;;;;;;4963741;28;20046;-75
2021/12/25 02:51:00;;;;;;;2.42;1.75;;;-1.40;99.90;;;;;;4964635;28;20077;-75
2021/12/25 02:53:25;;;;;;;4.00;1.73;;;-1.30;99.90;;;;;;4964328;28;20046;-75
2021/12/25 02:55:51;;;;;;;2.55;1.70;;;-1.40;99.90;;;;;;4964011;28;20046;-75
2021/12/25 02:58:20;;;;;;;5.10;2.30;;;-1.40;99.90;;;;;;4965877;28;20494;-76
2021/12/25 03:00:52;;;;;;;4.32;1.77;;;-1.50;99.90;;;;;;4963785;28;20109;-75
2021/12/25 03:03:18;;;;;;;3.38;1.70;;;-1.50;99.90;;;;;;4966506;28;20050;-75
2021/12/25 03:05:44;;;;;;;3.72;1.90;;;-1.50;99.90;;;;;;4966838;28;20121;-75
2021/12/25 03:08:12;;;;;;;2.03;1.83;;;-1.50;99.90;;;;;;4964020;28;20467;-76
2021/12/25 03:10:39;;;;;;;4.05;1.98;;;-1.50;99.90;;;;;;4965695;28;20142;-76
2021/12/25 03:15:45;;;;;;;2.13;1.70;;;;;;;;;;4965531;28;20055;-76
2021/12/25 03:18:26;;;;;;;1.77;1.60;;;-1.50;99.90;;;;;;4965010;28;20117;-76
2021/12/25 03:20:58;;;;;;;2.17;1.50;;;-1.70;99.90;;;;;;4980691;28;20059;-76
2021/12/25 03:23:26;;;;;;;4.57;2.00;;;-1.70;99.90;;;;;;4964719;28;20049;-76
2021/12/25 03:25:53;;;;;;;2.78;1.77;;;-1.80;99.90;;;;;;4962065;28;20074;-76
2021/12/25 03:28:22;;;;;;;2.08;1.40;;;;;;;;;;4964938;28;20035;-75
2021/12/25 03:30:49;;;;;;;2.95;1.60;;;;;;;;;;4978698;28;20059;-76
2021/12/25 03:33:16;;;;;;;3.47;1.85;;;;;;;;;;4964426;28;20042;-76
2021/12/25 03:35:42;;;;;;;2.50;1.67;;;;;;;;;;4962783;28;20565;-75
2021/12/25 03:38:09;;;;;;;2.50;1.60;;;;;;;;;;4965800;28;20074;-76
2021/12/25 03:40:35;;;;;;;4.25;1.60;;;;;;;;;;4964645;28;20043;-76
2021/12/25 03:43:01;;;;;;;5.15;1.60;;;;;;;;;;4963135;28;20074;-76
2021/12/25 03:45:30;;;;;;;3.28;1.50;;;;;;;;;;4963115;28;20133;-76
2021/12/25 03:48:07;;;;;;;1.85;1.52;;;;;;;;;;4963612;28;20125;-76
2021/12/25 03:58:55;;;;;;;2.42;1.55;;;;;;;;;;4963788;28;20046;-76
2021/12/25 04:01:41;;;;;;;3.55;1.80;;;;;;;;;;4962219;28;20050;-76
2021/12/25 04:04:24;;;;;;;2.58;1.58;;;;;;;;;;4962686;28;20054;-76
2021/12/25 04:07:50;;;;;;;1.85;1.52;;;;;;;;;;4963946;28;20065;-76
2021/12/25 04:09:41;;;;;;;1.60;1.50;;;;;;;;;;4962175;28;20050;-76
2021/12/25 04:12:08;;;;;;;1.73;1.40;;;;;;;;;;4963710;28;20038;-76
2021/12/25 04:14:35;;;;;;;1.98;1.50;;;;;;;;;;4963563;28;20102;-76
2021/12/25 04:17:01;;;;;;;3.25;1.60;;;;;;;;;;4962267;28;20039;-76
2021/12/25 04:19:27;;;;;;;3.40;1.42;;;;;;;;;;4966419;28;20248;-76
2021/12/25 04:21:58;;;;;;;2.63;1.40;;;;;;;;;;4962121;28;20058;-76
2021/12/25 04:24:26;;;;;;;1.48;1.30;;;;;;;;;;4979795;28;20145;-76
2021/12/25 04:26:52;;;;;;;1.92;1.60;;;;;;;;;;4964786;28;20542;-76
2021/12/25 04:42:53;;;;;;;1.10;1.10;;;;;;;;;;4969350;28;20051;-76
2021/12/25 05:04:33;;;;;;;1.42;1.30;;;;;;;;;;4985864;28;20141;-77
2021/12/25 05:06:59;;;;;;;2.05;1.35;;;;;;;;;;4963524;28;20047;-77
2021/12/25 05:09:25;;;;;;;1.25;1.20;;;;;;;;;;4963165;28;20058;-77
2021/12/25 05:11:51;;;;;;;1.42;1.10;;;;;;;;;;4962350;28;20051;-77
2021/12/25 05:14:17;;;;;;;1.88;1.52;;;;;;;;;;4967932;28;20050;-77
2021/12/25 05:16:43;;;;;;;1.70;1.27;;;;;;;;;;4967939;28;20038;-77
2021/12/25 05:19:09;;;;;;;2.88;1.52;;;;;;;;;;4967905;28;20097;-76
2021/12/25 05:21:35;;;;;;;1.58;1.40;;;;;;;;;;4970800;28;20550;-77
2021/12/25 05:24:02;;;;;;;1.40;1.30;;;;;;;;;;4968800;28;20058;-77
2021/12/25 05:26:28;;;;;;;1.50;1.40;;;;;;;;;;4968284;28;20074;-77
2021/12/25 05:29:00;;;;;;;1.35;1.25;;;;;;;;;;4969047;28;20077;-77
2021/12/25 05:31:27;;;;;;;1.38;1.30;;;;;;;;;;4970240;28;20138;-77
2021/12/25 05:33:54;;;;;;;2.25;1.33;;;;;;;;;;4967801;28;20046;-77
2021/12/25 05:36:20;;;;;;;2.45;1.52;;;;;;;;;;4975356;28;20066;-77
2021/12/25 05:38:46;;;;;;;2.17;1.30;;;;;;;;;;4969042;28;20042;-77
2021/12/25 05:41:12;;;;;;;1.35;1.23;;;;;;;;;;4966741;28;20083;-77
2021/12/25 05:43:38;;;;;;;3.08;1.40;;;;;;;;;;4968629;28;20186;-77
2021/12/25 05:46:05;;;;;;;1.35;1.25;;;;;;;;;;4968973;28;20043;-77
2021/12/25 05:48:35;;;;;;;1.30;1.20;;;;;;;;;;4967052;28;20101;-77
2021/12/25 05:51:05;;;;;;;1.20;1.20;;;;;;;;;;4968734;28;20503;-77
2021/12/25 05:53:31;;;;;;;1.30;1.30;;;;;;;;;;4970901;28;20047;-77
2021/12/25 05:55:57;;;;;;;1.23;1.23;;;;;;;;;;4970290;28;20054;-76
2021/12/25 05:58:23;;;;;;;5.10;1.60;;;;;;;;;;4968730;28;20062;-76
2021/12/25 06:00:49;;;;;;;1.20;1.20;;;;;;;;;;4968481;28;20043;-76
2021/12/25 06:03:15;;;;;;;1.20;1.20;;;;;;;;;;4967035;28;20049;-76
2021/12/25 06:05:41;;;;;;;1.75;1.45;;;;;;;;;;4967543;28;20134;-76
2021/12/25 06:08:07;;;;;;;2.35;1.40;;;;;;;;;;4969733;28;20102;-76
2021/12/25 06:10:33;;;;;;;1.67;1.50;;;;;;;;;;4968136;28;20050;-76
2021/12/25 06:13:00;;;;;;;1.20;1.20;;;;;;;;;;4968750;28;20050;-75
2021/12/25 06:15:28;;;;;;;1.42;1.35;;;;;;;;;;4970765;28;20057;-75
2021/12/25 06:17:54;;;;;;;1.73;1.50;;;;;;;;;;4970833;28;20185;-75
2021/12/25 06:20:20;;;;;;;3.33;1.50;;;;;;;;;;4968561;28;20050;-75
2021/12/25 06:22:46;;;;;;;1.85;1.60;;;;;;;;;;4968047;28;21095;-75
2021/12/25 06:25:12;;;;;;;2.58;1.45;;;;;;;;;;4963012;28;20058;-75
2021/12/25 06:27:39;;;;;;;1.83;1.40;;;;;;;;;;4964852;28;20053;-75
2021/12/25 06:30:06;;;;;;;1.25;1.10;;;;;;;;;;4963692;28;20081;-75
2021/12/25 06:32:32;;;;;;;1.42;1.30;;;;;;;;;;4965033;28;20131;-75
2021/12/25 06:34:58;;;;;;;1.55;1.45;;;;;;;;;;4963574;28;20563;-75
2021/12/25 06:37:25;;;;;;;1.85;1.40;;;;;;;;;;4964061;28;20051;-75
2021/12/25 06:39:51;;;;;;;1.52;1.42;;;;;;;;;;4964782;28;20089;-75
2021/12/25 06:42:17;;;;;;;2.55;1.55;;;;;;;;;;4964375;28;20078;-75
2021/12/25 06:44:43;;;;;;;1.70;1.60;;;;;;;;;;4963442;28;20053;-75
2021/12/25 06:47:09;;;;;;;4.43;1.88;;;;;;;;;;4965531;28;20517;-75
2021/12/25 06:49:35;;;;;;;1.90;1.80;;;;;;;;;;4963287;28;20486;-75
2021/12/25 06:52:01;;;;;;;2.58;1.45;;;;;;;;;;4963090;28;20047;-75
2021/12/25 06:54:27;;;;;;;1.30;1.30;;;;;;;;;;4968190;28;20837;-75
2021/12/25 06:56:54;;;;;;;1.80;1.70;;;;;;;;;;4964127;28;20054;-75
2021/12/25 06:59:21;;;;;;;1.88;1.65;;;;;;;;;;4964224;28;20450;-75
2021/12/25 07:01:47;;;;;;;1.65;1.55;;;;;;;;;;4965896;28;20101;-75
2021/12/25 07:04:13;;;;;;;1.40;1.30;;;;;;;;;;4963830;28;20138;-75
2021/12/25 07:06:40;;;;;;;2.00;1.40;;;;;;;;;;4966403;28;20074;-75
2021/12/25 07:09:07;;;;;;;3.05;1.52;;;;;;;;;;4964797;28;20101;-75
2021/12/25 07:11:34;;;;;;;1.50;1.40;;;;;;;;;;4966537;28;20047;-75
2021/12/25 07:14:02;;;;;;;1.88;1.40;;;;;;;;;;4966126;28;20683;-75
2021/12/25 07:16:29;;;;;;;1.77;1.42;;;;;;;;;;4979362;28;20054;-75
2021/12/25 07:18:55;;;;;;;1.80;1.30;;;;;;;;;;4966421;28;20059;-75
2021/12/25 07:21:21;;;;;;;1.23;1.23;;;;;;;;;;4964355;28;20495;-75
2021/12/25 07:23:47;;;;;;;4.03;1.92;;;;;;;;;;4964987;28;21117;-75
2021/12/25 07:26:17;;;;;;;1.73;1.50;;;;;;;;;;4963633;28;20053;-75
2021/12/25 07:28:43;;;;;;;2.47;1.67;;;;;;;;;;4967205;28;20074;-75
2021/12/25 07:31:09;;;;;;;2.45;1.60;;;;;;;;;;4971261;28;20054;-75
2021/12/25 07:33:36;;;;;;;1.67;1.50;;;;;;;;;;4962570;28;20046;-75
2021/12/25 07:36:03;;;;;;;3.38;1.60;;;;;;;;;;4963752;28;20051;-75
2021/12/25 07:38:29;;;;;;;1.45;1.30;;;;;;;;;;4973281;28;20162;-75
2021/12/25 07:40:55;;;;;;;2.05;1.50;;;;;;;;;;4964258;28;20061;-75
2021/12/25 07:43:21;;;;;;;2.45;1.60;;;;;;;;;;4965723;28;20055;-75
2021/12/25 07:45:48;;;;;;;1.55;1.45;;;;;;;;;;4967070;28;20055;-75
2021/12/25 07:48:18;;;;;;;2.20;1.55;;;;;;;;;;4963117;28;20059;-75
2021/12/25 07:50:44;;;;;;;2.05;1.52;;;;;;;;;;4962453;28;20058;-75
2021/12/25 07:53:11;;;;;;;1.75;1.40;;;;;;;;;;4963260;28;20077;-75
2021/12/25 07:55:38;;;;;;;1.65;1.55;;;;;;;;;;4964787;28;20059;-75
2021/12/25 07:58:04;;;;;;;5.85;2.90;;;;;;;;;;4965716;28;20058;-75
2021/12/25 08:00:30;;;;;;;1.73;1.63;;;;;;;;;;4964286;28;20053;-75
2021/12/25 08:02:56;;;;;;;2.97;1.27;;;;;;;;;;4964037;28;20058;-75
2021/12/25 08:05:22;;;;;;;4.88;1.50;;;;;;;;;;4964078;28;20077;-75
2021/12/25 08:07:49;;;;;;;2.13;1.60;;;;;;;;;;4964081;28;20082;-75
2021/12/25 08:10:18;;;;;;;2.35;1.70;;;;;;;;;;4963812;28;20042;-75
2021/12/25 08:12:46;;;;;;;1.70;1.60;;;;;;;;;;4963146;28;20457;-75
2021/12/25 08:15:13;;;;;;;2.00;1.80;;;;;;;;;;4962171;28;20088;-74
2021/12/25 08:17:39;;;;;;;1.80;1.70;;;;;;;;;;4963035;28;20046;-74
2021/12/25 08:20:06;;;;;;;2.70;1.40;;;;;;;;;;4963334;28;20038;-74
2021/12/25 08:22:32;;;;;;;3.10;1.52;;;;;;;;;;4962554;28;20138;-75
2021/12/25 08:24:58;;;;;;;2.03;1.63;;;;;;;;;;4964213;28;20055;-74
2021/12/25 08:27:24;;;;;;;2.70;1.83;;;;;;;;;;4964781;28;20058;-74
2021/12/25 08:29:50;;;;;;;3.00;1.50;;;;;;;;;;4962262;28;20062;-74
2021/12/25 08:32:16;;;;;;;2.55;1.70;;;;;;;;;;4963771;28;20101;-74
2021/12/25 08:34:43;;;;;;;1.73;1.50;;;;;;;;;;4962913;28;20055;-74
2021/12/25 08:37:10;;;;;;;2.75;1.40;;;;;;;;;;4960380;28;20169;-74
2021/12/25 08:39:37;;;;;;;1.52;1.42;;;;;;;;;;4967397;28;20047;-74
2021/12/25 08:42:03;;;;;;;1.70;1.60;;;;;;;;;;4968691;28;20054;-74
2021/12/25 08:44:34;;;;;;;3.22;1.50;;;;;;;;;;4968611;28;20070;-74
2021/12/25 08:47:01;;;;;;;1.50;1.40;;;;;;;;;;4968656;28;20051;-74
2021/12/25 08:49:31;;;;;;;2.75;1.65;;;;;;;;;;4968137;28;20045;-74
2021/12/25 08:52:01;;;;;;;3.13;1.80;;;;;;;;;;4966966;28;20487;-74
2021/12/25 08:54:31;;;;;;;2.72;1.83;;;;;;;;;;4961241;28;20046;-75
2021/12/25 08:56:57;;;;;;;2.08;1.55;;;;;;;;;;4970658;28;20396;-75
2021/12/25 08:59:23;;;;;;;8.35;4.55;;;;;;;;;;4968087;28;20054;-75
2021/12/25 09:01:49;;;;;;;3.17;1.90;;;;;;;;;;4971281;28;20121;-75
2021/12/25 09:04:15;;;;;;;7.55;2.72;;;;;;;;;;4969698;28;20043;-76
2021/12/25 09:06:41;;;;;;;7.18;2.10;;;;;;;;;;4961933;28;20402;-75
2021/12/25 09:09:07;;;;;;;2.40;2.10;;;;;;;;;;4966038;28;20055;-75
2021/12/25 09:11:34;;;;;;;3.17;2.00;;;;;;;;;;4962817;28;20038;-76
2021/12/25 09:14:00;;;;;;;2.22;2.03;;;;;;;;;;4967487;28;20133;-75
2021/12/25 09:16:26;;;;;;;3.60;2.88;;;;;;;;;;4970214;28;20510;-76
2021/12/25 09:18:52;;;;;;;5.05;2.08;;;;;;;;;;4968037;28;20047;-76
2021/12/25 09:21:19;;;;;;;1.75;1.65;;;;;;;;;;4968101;28;20376;-80
2021/12/25 09:23:46;;;;;;;5.45;2.58;;;;;;;;;;4969215;28;20045;-78
2021/12/25 09:26:12;;;;;;;6.70;4.38;;;;;;;;;;4969696;28;20166;-75
2021/12/25 09:28:38;;;;;;;11.80;5.60;;;;;;;;;;4966941;28;20082;-75
2021/12/25 09:31:04;;;;;;;6.80;3.25;;;;;;;;;;4968577;28;20043;-75
2021/12/25 09:33:30;;;;;;;2.47;1.70;;;;;;;;;;4965516;28;20038;-78
2021/12/25 09:35:57;;;;;;;3.28;2.53;;;;;;;;;;4965835;28;20511;-75
2021/12/25 09:38:23;;;;;;;2.42;2.00;;;;;;;;;;4968818;28;20106;-76
2021/12/25 09:40:49;;;;;;;3.80;2.53;;;;;;;;;;4967772;28;20047;-76
2021/12/25 09:43:18;;;;;;;3.60;1.88;;;;;;;;;;4967754;28;20043;-76
2021/12/25 09:45:44;;;;;;;2.08;1.52;;;;;;;;;;4967211;28;20864;-76
2021/12/25 09:48:10;;;;;;;2.25;1.60;;;;;;;;;;4968298;28;20043;-75
2021/12/25 09:50:36;;;;;;;1.92;1.50;;;;;;;;;;4968392;28;20391;-77
2021/12/25 09:53:10;;;;;;;2.03;1.70;;;;;;;;;;4970512;28;20475;-77
2021/12/25 09:55:38;;;;;;;2.30;1.52;;;;;;;;;;4967522;28;20558;-77
2021/12/25 09:58:04;;;;;;;3.33;1.80;;;;;;;;;;4967126;28;20430;-77
2021/12/25 10:00:31;;;;;;;2.33;1.40;;;;;;;;;;4972267;28;20566;-77
2021/12/25 10:02:57;;;;;;;4.78;2.30;;;;;;;;;;4972978;28;20042;-75
2021/12/25 10:05:33;;;;;;;1.83;1.65;;;;;;;;;;4969892;28;20058;-76
2021/12/25 10:08:15;;;;;;;2.78;1.95;;;;;;;;;;4972826;28;20137;-77
2021/12/25 10:10:47;;;;;;;2.83;2.00;;;;;;;;;;4971547;28;20051;-77
2021/12/25 10:13:22;;;;;;;2.92;1.83;;;;;;;;;;4971634;28;20054;-76
2021/12/25 10:15:48;;;;;;;1.60;1.50;;;;;;;;;;4973740;28;21480;-76
2021/12/25 10:18:14;;;;;;;1.70;1.33;;;;;;;;;;4969337;28;20449;-77
2021/12/25 10:20:40;;;;;;;1.88;1.60;;;;;;;;;;4970614;28;20410;-76
2021/12/25 10:23:11;;;;;;;1.83;1.55;;;;;;;;;;4966665;28;20051;-77
2021/12/25 10:25:47;;;;;;;2.88;1.80;;;;;;;;;;4973147;28;20101;-73
2021/12/25 10:28:15;;;;;;;2.42;1.67;;;;;;;;;;4971233;28;20050;-73
2021/12/25 10:30:45;;;;;;;2.70;1.58;;;;;;;;;;4970788;28;20057;-73
2021/12/25 10:33:23;;;;;;;1.95;1.65;;;;;;;;;;4969113;28;20043;-73
2021/12/25 10:35:49;;;;;;;4.35;1.60;;;;;;;;;;4972240;28;20059;-73
2021/12/25 10:38:17;;;;;;;1.50;1.40;;;;;;;;;;4968930;28;20097;-73
2021/12/25 10:40:43;;;;;;;1.80;1.60;;;;;;;;;;4970229;28;20054;-73
2021/12/25 10:43:19;;;;;;;3.88;1.80;;;;;;;;;;4971865;28;20060;-73
2021/12/25 10:45:57;;;;;;;1.58;1.48;;;;;;;;;;4969287;28;20047;-73
2021/12/25 10:48:27;;;;;;;4.10;1.70;;;;;;;;;;4972262;28;20074;-73
2021/12/25 10:50:53;;;;;;;1.77;1.67;;;;;;;;;;4970173;28;20047;-73
2021/12/25 10:53:27;;;;;;;1.60;1.50;;;;;;;;;;4968394;28;20102;-73
2021/12/25 10:55:54;;;;;;;2.10;1.50;;;;;;;;;;4967376;28;20379;-73
2021/12/25 10:58:22;;;;;;;2.28;1.40;;;;;;;;;;4968634;28;20067;-73
2021/12/25 11:00:55;;;;;;;2.72;1.85;;;;;;;;;;4968428;28;20042;-73
2021/12/25 11:03:32;;;;;;;4.03;1.88;;;;;;;;;;4969911;28;20098;-73
2021/12/25 11:06:06;;;;;;;2.10;1.80;;;;;;;;;;4973149;28;20133;-73
2021/12/25 11:08:32;;;;;;;;;;;;;;;;;;4966413;28;20065;-74
2021/12/25 11:11:04;;;;;;;2.45;1.70;;;;;;;;;;4971244;28;20298;-73
2021/12/25 11:13:30;;;;;;;2.70;1.70;;;;;;;;;;4969363;28;20137;-74
2021/12/25 11:16:03;;;;;;;3.13;1.77;;;;;;;;;;4971764;28;20142;-73
2021/12/25 11:18:31;;;;;;;1.70;1.60;;;;;;;;;;4967792;28;20089;-73
2021/12/25 11:20:59;;;;;;;2.25;1.60;;;;;;;;;;4971542;28;20097;-73
2021/12/25 11:23:27;;;;;;;2.63;1.70;;;;;;;;;;4969928;28;20053;-74
2021/12/25 11:25:53;;;;;;;4.38;1.77;;;;;;;;;;4968033;28;20069;-74
2021/12/25 11:28:19;;;;;;;4.07;1.60;;;;;;;;;;4969345;28;20057;-74
2021/12/25 11:30:46;;;;;;;1.67;1.58;;;;;;;;;;4969237;28;20066;-74
2021/12/25 11:33:13;;;;;;;4.03;1.70;;;;;;;;;;4969781;28;20064;-74
2021/12/25 11:35:40;;;;;;;1.60;1.50;;;;;;;;;;4971891;28;20076;-73
2021/12/25 11:38:07;;;;;;;3.08;1.60;;;;;;;;;;4971427;28;20069;-75
2021/12/25 11:40:35;;;;;;;3.40;1.92;;;;;;;;;;4966975;28;20487;-75
2021/12/25 11:43:04;;;;;;;4.15;1.90;;;;;;;;;;4971559;28;20047;-75
2021/12/25 11:45:41;;;;;;;2.17;1.98;;;;;;;;;;4963980;28;20050;-74
2021/12/25 11:48:18;;;;;;;4.32;1.83;;;;;;;;;;4967909;28;20479;-74
2021/12/25 11:50:46;;;;;;;2.80;1.80;;;;;;;;;;4970219;28;20105;-75
2021/12/25 11:53:43;;;;;;;2.33;1.80;;;;;;;;;;4966213;28;20058;-76
2021/12/25 11:58:43;;;;;;;1.92;1.63;;;;;;;;;;4969137;28;20094;-76
2021/12/25 12:01:15;;;;;;;4.10;1.50;;;;;;;;;;4967346;28;20133;-75
2021/12/25 12:03:44;;;;;;;4.55;1.98;;;;;;;;;;4969301;28;20051;-75
2021/12/25 12:06:10;;;;;;;2.10;1.95;;;;;;;;;;4967692;28;20471;-76
2021/12/25 12:08:55;;;;;;;3.20;2.05;;;;;;;;;;4966544;28;20039;-76
2021/12/25 12:11:22;;;;;;;1.60;1.50;;;;;;;;;;4967967;28;20109;-76
2021/12/25 12:13:48;;;;;;;3.08;2.00;;;;;;;;;;4965622;28;20073;-75
2021/12/25 12:16:14;;;;;;;2.97;1.70;;;;;;;;;;4969877;28;20494;-76
2021/12/25 12:18:41;;;;;;;1.80;1.70;;;;;;;;;;4984579;28;20047;-76
2021/12/25 12:21:16;;;;;;;4.32;1.90;;;;;;;;;;4969012;28;20043;-77
2021/12/25 12:26:41;;;;;;;1.95;1.75;;;;;;;;;;4966435;28;20051;-77
2021/12/25 12:29:07;;;;;;;3.80;2.20;;;;;;;;;;4966851;28;20598;-77
2021/12/25 12:31:37;;;;;;;7.03;2.00;;;;;;;;;;4970318;28;20097;-76
2021/12/25 12:34:23;;;;;;;1.95;1.80;;;;;;;;;;4970267;28;20426;-78
2021/12/25 12:36:49;;;;;;;1.80;1.70;;;;;;;;;;4968937;28;20051;-78
2021/12/25 12:39:20;;;;;;;3.97;2.00;;;;;;;;;;4967813;28;20047;-79
2021/12/25 12:41:54;;;;;;;1.95;1.75;;;;;;;;;;4967274;28;20148;-79
2021/12/25 12:44:30;;;;;;;2.20;1.95;;;;;;;;;;4969899;28;20051;-78
2021/12/25 12:46:59;;;;;;;4.93;1.77;;;;;;;;;;4967601;28;20058;-79
2021/12/25 12:49:27;;;;;;;2.20;1.75;;;;;;;;;;4966117;28;20051;-79
2021/12/25 12:52:12;;;;;;;4.47;2.10;;;;;;;;;;4966987;28;20063;-79
2021/12/25 12:54:46;;;;;;;3.42;1.85;;;;;;;;;;4965945;28;20188;-79
2021/12/25 12:57:20;;;;;;;4.65;1.73;;;;;;;;;;4967052;28;20105;-79
2021/12/25 12:59:47;;;;;;;2.45;1.85;;;;;;;;;;4969961;28;20050;-79
2021/12/25 13:02:14;;;;;;;2.00;1.70;;;;;;;;;;4968661;28;20050;-79
2021/12/25 13:04:44;;;;;;;3.92;2.08;;;;;;;;;;4977623;28;20050;-79
2021/12/25 13:07:11;;;;;;;3.80;1.90;;;;;;;;;;4965412;28;20054;-79
2021/12/25 13:09:42;;;;;;;1.63;1.52;;;;;;;;;;4969790;28;20047;-79
2021/12/25 13:12:20;;;;;;;5.53;2.15;;;;;;;;;;4966560;28;20042;-79
2021/12/25 13:14:56;;;;;;;2.20;2.00;;;;;;;;;;4968364;28;20047;-79
2021/12/25 13:17:22;;;;;;;3.47;1.83;;;;;;;;;;4969040;28;20051;-79
2021/12/25 13:19:48;;;;;;;2.30;1.75;;;;;;;;;;4970333;28;20050;-79
2021/12/25 13:22:15;;;;;;;2.15;1.88;;;;;;;;;;4969662;28;20085;-79
2021/12/25 13:24:41;;;;;;;2.92;1.90;;;;;;;;;;4965479;28;20823;-79
2021/12/25 13:27:07;;;;;;;2.67;1.92;;;;;;;;;;4967963;28;20058;-79
2021/12/25 13:29:33;;;;;;;1.70;1.60;;;;;;;;;;4970200;28;20208;-79
2021/12/25 13:32:00;;;;;;;2.35;2.00;;;;;;;;;;4967776;28;20039;-79
2021/12/25 13:34:28;;;;;;;2.33;1.90;;;;;;;;;;4970268;28;20054;-79
2021/12/25 13:36:58;;;;;;;2.95;1.75;;;-1.70;99.90;;;;;;4970966;28;20383;-79
2021/12/25 13:39:27;;;;;;;3.40;2.10;;;;;;;;;;4973720;28;20086;-79
2021/12/25 13:41:54;;;;;;;2.20;2.05;;;;;;;;;;4968882;28;20054;-79
2021/12/25 13:44:23;;;;;;;1.80;1.70;;;;;;;;;;4967896;28;20047;-79
2021/12/25 13:46:52;;;;;;;10.23;2.55;;;;;;;;;;4969247;28;20503;-79
2021/12/25 13:49:32;;;;;;;1.80;1.60;;;;;;;;;;4979039;28;20415;-79
2021/12/25 13:51:59;;;;;;;2.40;2.05;;;;;;;;;;4967461;28;20055;-79
2021/12/25 13:54:26;;;;;;;4.47;2.20;;;;;;;;;;4971691;28;20138;-79
2021/12/25 13:56:53;;;;;;;2.53;1.98;;;;;;;;;;4971238;28;20055;-79
2021/12/25 13:59:20;;;;;;;2.33;2.00;;;;;;;;;;4972981;28;20379;-79
2021/12/25 14:01:54;;;;;;;3.17;2.28;;;;;;;;;;4969147;28;20043;-79
2021/12/25 14:04:20;;;;;;;2.03;1.80;;;;;;;;;;4976679;28;20443;-79
2021/12/25 14:06:46;;;;;;;2.72;1.60;;;;;;;;;;4974235;28;20101;-79
2021/12/25 14:09:12;;;;;;;2.83;2.00;;;;;;;;;;4971473;28;20059;-80
2021/12/25 14:11:38;;;;;;;3.25;1.67;;;;;;;;;;4971423;28;20046;-80
2021/12/25 14:14:05;;;;;;;4.55;1.85;;;;;;;;;;4969010;28;20046;-80
2021/12/25 14:16:31;;;;;;;2.67;2.00;;;;;;;;;;4970468;28;20094;-79
2021/12/25 14:18:57;;;;;;;2.50;1.88;;;;;;;;;;4973128;28;20039;-80
2021/12/25 14:21:24;;;;;;;2.53;2.00;;;;;;;;;;4971087;28;20059;-80
2021/12/25 14:24:04;;;;;;;5.15;2.33;;;;;;;;;;4971625;28;20509;-80
2021/12/25 14:26:31;;;;;;;3.17;2.10;;;;;;;;;;4970927;28;20525;-80
2021/12/25 14:28:57;;;;;;;3.53;2.30;;;;;;;;;;4971621;28;20054;-79
2021/12/25 14:31:23;;;;;;;3.22;2.55;;;;;;;;;;4972207;28;20129;-80
2021/12/25 14:33:55;;;;;;;6.82;2.30;;;;;;;;;;4977385;28;20047;-80
2021/12/25 14:36:21;;;;;;;2.63;2.20;;;;;;;;;;4971827;28;20061;-79
2021/12/25 14:38:49;;;;;;;2.75;2.03;;;;;;;;;;4972185;28;20129;-80
2021/12/25 14:41:16;;;;;;;2.78;2.20;;;;;;;;;;4974985;28;20490;-79
2021/12/25 14:43:43;;;;;;;2.70;2.03;;;;;;;;;;4969915;28;20078;-79
2021/12/25 14:46:18;;;;;;;2.50;1.90;;;;;;;;;;4971694;28;20115;-79
2021/12/25 14:48:44;;;;;;;3.10;2.20;;;;;;;;;;4972452;28;20042;-80
2021/12/25 14:51:14;;;;;;;2.90;2.08;;;;;;;;;;4974133;28;20149;-80
2021/12/25 14:53:46;;;;;;;3.08;2.35;;;;;;;;;;4968150;28;20051;-79
2021/12/25 14:56:15;;;;;;;3.47;2.13;;;;;;;;;;4967683;28;20171;-79
2021/12/25 14:58:46;;;;;;;3.03;1.90;;;;;;;;;;4970544;28;20105;-79
2021/12/25 15:01:18;;;;;;;2.92;2.28;;;;;;;;;;4968982;28;20520;-79
2021/12/25 15:03:45;;;;;;;3.47;2.40;;;;;;;;;;4968143;28;20047;-78
2021/12/25 15:06:24;;;;;;;5.85;3.22;;;;;;;;;;4974024;28;20074;-78
2021/12/25 15:09:00;;;;;;;6.72;3.28;;;;;;;;;;4968185;28;20554;-77
2021/12/25 15:11:31;;;;;;;4.07;2.92;;;;;;;;;;4968408;28;20057;-77
2021/12/25 15:14:01;;;;;;;4.97;2.63;;;;;;;;;;4973882;28;20047;-82
2021/12/25 15:16:53;;;;;;;4.68;2.78;;;;;;;;;;4968780;28;20046;-81
2021/12/25 15:19:22;;;;;;;3.97;2.60;;;;;;;;;;4967025;28;20406;-80
2021/12/25 15:21:49;;;;;;;2.92;2.38;;;;;;;;;;4965391;28;20043;-81
2021/12/25 15:24:16;;;;;;;4.18;2.72;;;;;;;;;;4970430;28;20046;-81
2021/12/25 15:26:47;;;;;;;3.97;2.63;;;;;;;;;;4965615;28;20083;-75
2021/12/25 15:29:13;;;;;;;4.00;2.75;;;;;;;;;;4970697;28;20082;-81
2021/12/25 15:31:39;;;;;;;6.40;3.20;;;;;;;;;;4969987;28;20460;-80
2021/12/25 15:34:12;;;;;;;3.13;2.72;;;;;;;;;;4969282;28;20134;-81
2021/12/25 15:36:42;;;;;;;5.32;3.00;;;;;;;;;;4974507;28;20047;-81
2021/12/25 15:39:10;;;;;;;4.47;2.60;;;;;;;;;;4969940;28;20061;-83
2021/12/25 15:41:36;;;;;;;6.03;3.08;;;;;;;;;;4964928;28;20149;-84
2021/12/25 15:44:03;;;;;;;5.82;2.95;;;;;;;;;;4971810;28;20133;-78